Terminal Aerodrome Forecast
Issued by NWS

Home | Current Version | Previous Version | Text Only | Print | Product List | Glossary On
Versions: 1 2 3 4 5 6 7 8 9 10 11 12 13 14
000
FTUS43 KGRB 031720
TAFMTW
TAF
KMTW 031720Z 0318/0418 29011G17KT P6SM SCT070
     FM032200 31007KT P6SM BKN070
     FM040600 30004KT P6SM SKC
     FM041500 30008KT P6SM BKN050=

USA.gov is the U.S. government's official web portal to all federal, state and local government web resources and services.